CYBB/YBB METAR and TAF weather

Enter ICAO airport designator
Station Type Date Time Source
CYBB METAR 2021/05/13 23:00 UTC NOAA

CYBB 132300Z 32013KT 8SM -SN DRSN SCT009 BKN016 M14/M19 A3019 RMK ST4SC3 LAST STFD OBS/NXT/141200Z SLP226


Station Type Date Time Source
CYBB Decoded METAR 2021/05/13 23:00 UTC NOAA

Pelly Bay Airport, Canada (CYBB) 68-32N 089-49W
May 13, 2021 - 07:00 PM EDT / 2021.05.13 2300 UTC
Wind: from the NW (320 degrees) at 15 MPH (13 KT):0
Visibility: 8 mile(s):0
Sky conditions: mostly cloudy
Weather: light snow; low drifting snow
Temperature: 6 F (-14 C)
Windchill: -11 F (-24 C):2
Dew Point: -2 F (-19 C)
Relative Humidity: 65%
Pressure (altimeter): 30.19 in. Hg (1022 hPa)
ob: CYBB 132300Z 32013KT 8SM -SN DRSN SCT009 BKN016 M14/M19 A3019 RMK ST4SC3 LAST STFD OBS/NXT/141200Z SLP226
cycle: 23

Station Type Date Time Source
CYBB TAF 2021/05/13 21:15 UTC NOAA

TAF
AMD TAF
AMD CYBB 132113Z 1321/1323 32015KT 2SM -SN BKN008 OVC020
TEMPO 1321/1323 P6SM -SN BKN025
RMK NXT FCST WILL BE ISSUED AT 141345Z

Example: see airport list